PWSweather.com
Personal Weather Stations
Station Observations
CW4114
Near Downtown, Rogers City, MI 49779

Near DowntownRogers City, MI 49779

Lat: 45.417443, Lon: -83.810642

Elevation: 605

Station Type: Davis Vantage Pro2 w/Solar

Latest ConditionsUpdated 3:14:44 AM EST Friday, Feb 24, 2017
Currently Today's Max Today's Min Today's Average
Temperature 32.2°F0.1°C 32.5°F0.3°C 32.2°F0.1°C 32.4°F0.2°C
Dew Point 26.4°F-3.1°C 26.4°F-3.1°C 25.7°F-3.5°C 26.1°F-3.3°C
Winds 3.6 mph NNW5.8 kmh NNW 6.5 mph N10.5 kmh N - 3.7 mph 6.0 kmh
Wind Gusts 9.6 mph15.4 kmh 12.8 mph20.6 kmh - -
Humidity 79% 79% 76% 77%
Pressure 29.89 in1012.2 mb 29.97 in1014.9 mb 29.89 in1012.2 mb -
Hour Temp Dew Point Humidity Winds Wind Gusts Pressure Precip Precip Rate Daily Precip Total
03:14 AM 32.2°F0.1°C 26.4°F-3.1°C 79% 3.6 mph NNW5.8 kmh NNW 9.6 mph15.4 kmh 29.89 in1012.2 mb 0.00 in0.0 mm 0.00 in0.0 mm 0.00 in0.0 mm
03:09 AM 32.2°F0.1°C 26.1°F-3.3°C 78% 5.4 mph N8.7 kmh N 10.5 mph16.9 kmh 29.89 in1012.2 mb 0.00 in0.0 mm 0.00 in0.0 mm 0.00 in0.0 mm
03:04 AM 32.4°F0.2°C 26.2°F-3.2°C 78% 6.5 mph N10.5 kmh N 10.5 mph16.9 kmh 29.89 in1012.2 mb 0.00 in0.0 mm 0.00 in0.0 mm 0.00 in0.0 mm
02:59 AM 32.4°F0.2°C 26.2°F-3.2°C 78% 5.1 mph NE8.2 kmh NE 11.6 mph18.7 kmh 29.90 in1012.5 mb 0.00 in0.0 mm 0.00 in0.0 mm 0.00 in0.0 mm
02:54 AM 32.4°F0.2°C 26.2°F-3.2°C 78% 5.6 mph NNE9.0 kmh NNE 10.5 mph16.9 kmh 29.90 in1012.5 mb 0.00 in0.0 mm 0.00 in0.0 mm 0.00 in0.0 mm
02:49 AM 32.4°F0.2°C 25.9°F-3.4°C 77% 5.6 mph NNE9.0 kmh NNE 11.6 mph18.7 kmh 29.91 in1012.9 mb 0.00 in0.0 mm 0.00 in0.0 mm 0.00 in0.0 mm
02:44 AM 32.4°F0.2°C 26.2°F-3.2°C 78% 5.8 mph N9.3 kmh N 10.5 mph16.9 kmh 29.91 in1012.9 mb 0.00 in0.0 mm 0.00 in0.0 mm 0.00 in0.0 mm
02:39 AM 32.4°F0.2°C 26.2°F-3.2°C 78% 4.7 mph N7.6 kmh N 9.6 mph15.4 kmh 29.92 in1013.2 mb 0.00 in0.0 mm 0.00 in0.0 mm 0.00 in0.0 mm
02:34 AM 32.2°F0.1°C 26.4°F-3.1°C 79% 3.8 mph 6.1 kmh 9.6 mph15.4 kmh 29.93 in1013.5 mb 0.00 in0.0 mm 0.00 in0.0 mm 0.00 in0.0 mm
02:29 AM 32.2°F0.1°C 25.7°F-3.5°C 77% 4.0 mph N6.4 kmh N 8.5 mph13.7 kmh 29.93 in1013.5 mb 0.00 in0.0 mm 0.00 in0.0 mm 0.00 in0.0 mm
02:24 AM 32.2°F0.1°C 26.1°F-3.3°C 78% 2.9 mph N4.7 kmh N 8.5 mph13.7 kmh 29.93 in1013.5 mb 0.00 in0.0 mm 0.00 in0.0 mm 0.00 in0.0 mm
02:19 AM 32.2°F0.1°C 26.1°F-3.3°C 78% 3.4 mph NE5.5 kmh NE 6.3 mph10.1 kmh 29.94 in1013.9 mb 0.00 in0.0 mm 0.00 in0.0 mm 0.00 in0.0 mm
02:14 AM 32.2°F0.1°C 26.1°F-3.3°C 78% 3.6 mph N5.8 kmh N 7.4 mph11.9 kmh 29.94 in1013.9 mb 0.00 in0.0 mm 0.00 in0.0 mm 0.00 in0.0 mm
02:09 AM 32.4°F0.2°C 26.2°F-3.2°C 78% 2.2 mph NW3.5 kmh NW 6.3 mph10.1 kmh 29.94 in1013.9 mb 0.00 in0.0 mm 0.00 in0.0 mm 0.00 in0.0 mm
02:04 AM 32.4°F0.2°C 26.2°F-3.2°C 78% 2.0 mph W3.2 kmh W 8.5 mph13.7 kmh 29.94 in1013.9 mb 0.00 in0.0 mm 0.00 in0.0 mm 0.00 in0.0 mm
01:59 AM 32.4°F0.2°C 25.9°F-3.4°C 77% 3.6 mph N5.8 kmh N 9.6 mph15.4 kmh 29.94 in1013.9 mb 0.00 in0.0 mm 0.00 in0.0 mm 0.00 in0.0 mm
01:54 AM 32.4°F0.2°C 25.9°F-3.4°C 77% 3.6 mph NNE5.8 kmh NNE 12.8 mph20.6 kmh 29.95 in1014.2 mb 0.00 in0.0 mm 0.00 in0.0 mm 0.00 in0.0 mm
01:49 AM 32.4°F0.2°C 25.9°F-3.4°C 77% 4.3 mph NNW6.9 kmh NNW 9.6 mph15.4 kmh 29.94 in1013.9 mb 0.00 in0.0 mm 0.00 in0.0 mm 0.00 in0.0 mm
01:44 AM 32.4°F0.2°C 25.9°F-3.4°C 77% 3.1 mph NNE5.0 kmh NNE 11.6 mph18.7 kmh 29.94 in1013.9 mb 0.00 in0.0 mm 0.00 in0.0 mm 0.00 in0.0 mm
01:39 AM 32.4°F0.2°C 25.7°F-3.5°C 76% 4.0 mph N6.4 kmh N 8.5 mph13.7 kmh 29.95 in1014.2 mb 0.00 in0.0 mm 0.00 in0.0 mm 0.00 in0.0 mm
01:34 AM 32.4°F0.2°C 25.9°F-3.4°C 77% 3.1 mph NW5.0 kmh NW 8.5 mph13.7 kmh 29.95 in1014.2 mb 0.00 in0.0 mm 0.00 in0.0 mm 0.00 in0.0 mm
01:29 AM 32.4°F0.2°C 25.9°F-3.4°C 77% 2.9 mph N4.7 kmh N 6.3 mph10.1 kmh 29.96 in1014.6 mb 0.00 in0.0 mm 0.00 in0.0 mm 0.00 in0.0 mm
01:24 AM 32.4°F0.2°C 25.9°F-3.4°C 77% 2.5 mph 4.0 kmh 7.4 mph11.9 kmh 29.96 in1014.6 mb 0.00 in0.0 mm 0.00 in0.0 mm 0.00 in0.0 mm
01:19 AM 32.4°F0.2°C 25.9°F-3.4°C 77% 3.8 mph NW6.1 kmh NW 9.6 mph15.4 kmh 29.95 in1014.2 mb 0.00 in0.0 mm 0.00 in0.0 mm 0.00 in0.0 mm
01:14 AM 32.4°F0.2°C 25.9°F-3.4°C 77% 3.6 mph NNW5.8 kmh NNW 7.4 mph11.9 kmh 29.95 in1014.2 mb 0.00 in0.0 mm 0.00 in0.0 mm 0.00 in0.0 mm
01:09 AM 32.4°F0.2°C 26.2°F-3.2°C 78% 1.3 mph N2.1 kmh N 8.5 mph13.7 kmh 29.95 in1014.2 mb 0.00 in0.0 mm 0.00 in0.0 mm 0.00 in0.0 mm
01:04 AM 32.4°F0.2°C 26.2°F-3.2°C 78% 3.6 mph N5.8 kmh N 7.4 mph11.9 kmh 29.95 in1014.2 mb 0.00 in0.0 mm 0.00 in0.0 mm 0.00 in0.0 mm
12:59 AM 32.4°F0.2°C 26.2°F-3.2°C 78% 2.9 mph NNE4.7 kmh NNE 9.6 mph15.4 kmh 29.94 in1013.9 mb 0.00 in0.0 mm 0.00 in0.0 mm 0.00 in0.0 mm
12:54 AM 32.4°F0.2°C 26.2°F-3.2°C 78% 4.3 mph WNW6.9 kmh WNW 8.5 mph13.7 kmh 29.94 in1013.9 mb 0.00 in0.0 mm 0.00 in0.0 mm 0.00 in0.0 mm
12:49 AM 32.4°F0.2°C 25.9°F-3.4°C 77% 3.1 mph NW5.0 kmh NW 10.5 mph16.9 kmh 29.95 in1014.2 mb 0.00 in0.0 mm 0.00 in0.0 mm 0.00 in0.0 mm
12:44 AM 32.5°F0.3°C 26.1°F-3.3°C 77% 3.4 mph N5.5 kmh N 8.5 mph13.7 kmh 29.96 in1014.6 mb 0.00 in0.0 mm 0.00 in0.0 mm 0.00 in0.0 mm
12:39 AM 32.5°F0.3°C 26.1°F-3.3°C 77% 3.4 mph N5.5 kmh N 10.5 mph16.9 kmh 29.96 in1014.6 mb 0.00 in0.0 mm 0.00 in0.0 mm 0.00 in0.0 mm
12:34 AM 32.5°F0.3°C 26.1°F-3.3°C 77% 3.6 mph NNE5.8 kmh NNE 7.4 mph11.9 kmh 29.96 in1014.6 mb 0.00 in0.0 mm 0.00 in0.0 mm 0.00 in0.0 mm
12:29 AM 32.5°F0.3°C 26.1°F-3.3°C 77% 3.1 mph N5.0 kmh N 6.3 mph10.1 kmh 29.96 in1014.6 mb 0.00 in0.0 mm 0.00 in0.0 mm 0.00 in0.0 mm
12:24 AM 32.5°F0.3°C 26.1°F-3.3°C 77% 4.3 mph NW6.9 kmh NW 8.5 mph13.7 kmh 29.97 in1014.9 mb 0.00 in0.0 mm 0.00 in0.0 mm 0.00 in0.0 mm
12:19 AM 32.5°F0.3°C 25.9°F-3.4°C 76% 3.8 mph 6.1 kmh 8.5 mph13.7 kmh 29.97 in1014.9 mb 0.00 in0.0 mm 0.00 in0.0 mm 0.00 in0.0 mm
12:14 AM 32.5°F0.3°C 26.4°F-3.1°C 78% 3.1 mph NW5.0 kmh NW 6.3 mph10.1 kmh 29.97 in1014.9 mb 0.00 in0.0 mm 0.00 in0.0 mm 0.00 in0.0 mm
12:09 AM 32.5°F0.3°C 25.9°F-3.4°C 76% 3.6 mph NW5.8 kmh NW 8.5 mph13.7 kmh 29.97 in1014.9 mb 0.00 in0.0 mm 0.00 in0.0 mm 0.00 in0.0 mm
12:04 AM 32.5°F0.3°C 25.9°F-3.4°C 76% 3.1 mph N5.0 kmh N 5.4 mph8.7 kmh 29.97 in1014.9 mb 0.00 in0.0 mm 0.00 in0.0 mm 0.00 in0.0 mm